This is the latest recevied weather packets stored in our database for station/object BMCB-27. If no packets are shown the sender has not sent any weather packets the latest 10 day(s).
| Time | Temp. | Humidity | Pressure | Rain* | Wind** | Luminosity | Snow |
|---|---|---|---|---|---|---|---|
| 1777647734 | 22.78° C | 23% | 1019.6 hPa | 0 mm | - | 494 W/m² | - |
| 1777642749 | 22.22° C | 27% | 1020.3 hPa | 0 mm | - | 656 W/m² | - |
| 1777642283 | 21.67° C | 26% | 1020.5 hPa | 0 mm | - | 670 W/m² | - |
| 1777641539 | 21.67° C | 25% | 1020.6 hPa | 0 mm | - | 686 W/m² | - |
| 1777627892 | 17.78° C | 28% | 1022.5 hPa | 0 mm | - | 666 W/m² | - |
| 1777625701 | 16.11° C | 31% | 1022.6 hPa | 0 mm | - | 604 W/m² | - |
| 1777619458 | 12.78° C | 36% | 1022.7 hPa | 0 mm | - | 364 W/m² | - |
| 1777615637 | 11.11° C | 40% | 1022.6 hPa | 0 mm | - | 204 W/m² | - |
| 1777607149 | 8.89° C | 42% | 1022.6 hPa | 0 mm | - | 0 W/m² | - |
| 1777604567 | 9.44° C | 40% | 1022.6 hPa | 0 mm | - | 0 W/m² | - |
| 1777602195 | 9.44° C | 40% | 1022.6 hPa | 0 mm | - | 0 W/m² | - |
| 1777601217 | 10° C | 38% | 1022.7 hPa | 0 mm | - | 0 W/m² | - |
| 1777597377 | 10° C | 40% | 1022.9 hPa | 0 mm | - | 0 W/m² | - |
| 1777594069 | 10° C | 39% | 1022.8 hPa | 0 mm | - | 0 W/m² | - |
| 1777591801 | 10.56° C | 37% | 1022.8 hPa | 0 mm | - | 0 W/m² | - |
| 1777590800 | 10.56° C | 38% | 1023 hPa | 0 mm | - | 0 W/m² | - |
| 1777588748 | 11.67° C | 35% | 1022.9 hPa | 0 mm | - | 0 W/m² | - |
| 1777583333 | 12.78° C | 32% | 1022.9 hPa | 0 mm | - | 0 W/m² | - |
| 1777580781 | 13.33° C | 30% | 1022.7 hPa | 0 mm | - | 0 W/m² | - |
| 1777574158 | 16.67° C | 24% | 1021.5 hPa | 0 mm | - | 8 W/m² | - |
| 1777565116 | 19.44° C | 19% | 1020.9 hPa | 0 mm | - | 338 W/m² | - |
| 1777557853 | 20° C | 24% | 1021.1 hPa | 0 mm | - | 610 W/m² | - |
| 1777555971 | 19.44° C | 25% | 1021.5 hPa | 0 mm | - | 664 W/m² | - |
| 1777554330 | 19.44° C | 24% | 1021.7 hPa | 0 mm | - | 700 W/m² | - |
| 1777552513 | 18.89° C | 24% | 1021.9 hPa | 0 mm | - | 730 W/m² | - |
* Rain latest hour (hover to see other rain measurements)
** Current wind speed in m/s (hover to see current wind gust speed)